Time,TemperatureF,DewpointF,PressureIn,WindDirection,WindDirectionDegrees,WindSpeedMPH,WindSpeedGustMPH,Humidity,HourlyPrecipIn,Conditions,Clouds,dailyrainin,SoftwareType,DateUTC
2015-07-06 00:03:00,74.0,68.2,29.96,NW,311,2.0,6.0,82,0.01,,---,0.01,VWS V15.00,2015-07-06 04:03:00,
2015-07-06 00:08:00,73.9,68.4,29.96,NNW,348,2.0,6.0,83,0.01,,---,0.01,VWS V15.00,2015-07-06 04:08:00,
2015-07-06 00:13:00,73.9,68.4,29.96,NNW,336,1.0,6.0,83,0.01,,---,0.01,VWS V15.00,2015-07-06 04:13:00,
2015-07-06 00:18:00,73.8,68.3,29.96,NW,305,2.0,6.0,83,0.01,,---,0.01,VWS V15.00,2015-07-06 04:18:00,
2015-07-06 00:23:00,73.7,67.9,29.96,North,350,2.0,6.0,82,0.01,,---,0.01,VWS V15.00,2015-07-06 04:23:00,
2015-07-06 00:28:00,73.8,68.0,29.96,NNW,344,1.0,2.0,82,0.01,,---,0.01,VWS V15.00,2015-07-06 04:28:00,
2015-07-06 00:33:00,73.9,68.1,29.96,NW,316,4.0,5.0,82,0.01,,---,0.01,VWS V15.00,2015-07-06 04:33:00,
2015-07-06 00:38:00,74.0,67.8,29.96,North,355,2.0,5.0,81,0.01,,---,0.01,VWS V15.00,2015-07-06 04:38:00,
2015-07-06 00:43:00,74.0,67.8,29.96,NW,322,1.0,6.0,81,0.01,,---,0.01,VWS V15.00,2015-07-06 04:43:00,
2015-07-06 00:48:00,74.1,67.9,29.96,North,360,2.0,6.0,81,0.01,,---,0.01,VWS V15.00,2015-07-06 04:48:00,
2015-07-06 00:53:00,74.1,67.9,29.96,North,351,0.0,6.0,81,0.01,,---,0.01,VWS V15.00,2015-07-06 04:53:00,
2015-07-06 00:58:00,74.0,67.8,29.96,ENE,69,1.0,1.0,81,0.01,,---,0.01,VWS V15.00,2015-07-06 04:58:00,
2015-07-06 01:03:00,74.0,67.8,29.96,NW,309,0.0,3.0,81,0.01,,---,0.01,VWS V15.00,2015-07-06 05:03:00,
2015-07-06 01:08:00,74.0,67.8,29.96,NNW,332,1.0,3.0,81,0.01,,---,0.01,VWS V15.00,2015-07-06 05:08:00,
2015-07-06 01:13:00,74.2,68.0,29.96,NNW,336,1.0,4.0,81,0.01,,---,0.01,VWS V15.00,2015-07-06 05:13:00,
2015-07-06 01:18:00,74.2,68.0,29.96,NW,325,1.0,4.0,81,0.01,,---,0.01,VWS V15.00,2015-07-06 05:18:00,
2015-07-06 01:23:00,74.3,68.1,29.96,NW,321,0.0,4.0,81,0.01,,---,0.01,VWS V15.00,2015-07-06 05:23:00,
2015-07-06 01:28:00,74.2,68.0,29.96,NW,322,1.0,2.0,81,0.00,,---,0.01,VWS V15.00,2015-07-06 05:28:00,
2015-07-06 01:33:00,74.2,68.0,29.96,NW,322,1.0,2.0,81,0.00,,---,0.01,VWS V15.00,2015-07-06 05:33:00,
2015-07-06 01:38:00,74.2,67.6,29.96,NW,322,1.0,3.0,80,0.00,,---,0.01,VWS V15.00,2015-07-06 05:38:00,
2015-07-06 01:43:00,74.3,67.7,29.96,NW,322,0.0,3.0,80,0.00,,---,0.01,VWS V15.00,2015-07-06 05:43:00,
2015-07-06 01:48:00,74.3,68.1,29.96,NW,322,0.0,3.0,81,0.00,,---,0.01,VWS V15.00,2015-07-06 05:48:00,
2015-07-06 01:53:00,74.2,68.0,29.96,NW,322,0.0,3.0,81,0.00,,---,0.01,VWS V15.00,2015-07-06 05:53:00,
2015-07-06 01:58:00,74.1,67.9,29.96,NW,322,0.0,0.0,81,0.00,,---,0.01,VWS V15.00,2015-07-06 05:58:00,
2015-07-06 02:03:00,73.9,67.7,29.96,NW,322,0.0,1.0,81,0.00,,---,0.01,VWS V15.00,2015-07-06 06:03:00,
2015-07-06 02:08:00,74.0,67.8,29.96,NW,322,0.0,1.0,81,0.00,,---,0.01,VWS V15.00,2015-07-06 06:08:00,
2015-07-06 02:13:00,74.0,67.8,29.96,NW,322,0.0,1.0,81,0.00,,---,0.01,VWS V15.00,2015-07-06 06:13:00,
2015-07-06 02:18:00,74.0,67.8,29.96,NW,322,0.0,1.0,81,0.00,,---,0.01,VWS V15.00,2015-07-06 06:18:00,
2015-07-06 02:23:00,73.9,67.7,29.96,NW,322,0.0,1.0,81,0.00,,---,0.01,VWS V15.00,2015-07-06 06:23:00,
2015-07-06 02:28:00,73.8,67.6,29.96,NW,322,0.0,0.0,81,0.00,,---,0.01,VWS V15.00,2015-07-06 06:28:00,
2015-07-06 02:33:00,73.7,67.5,29.96,NW,322,0.0,0.0,81,0.00,,---,0.01,VWS V15.00,2015-07-06 06:33:00,
2015-07-06 02:38:00,73.7,67.5,29.96,NW,322,0.0,0.0,81,0.00,,---,0.01,VWS V15.00,2015-07-06 06:38:00,
2015-07-06 02:43:00,73.7,67.5,29.96,NW,322,0.0,0.0,81,0.00,,---,0.01,VWS V15.00,2015-07-06 06:43:00,
2015-07-06 02:48:00,73.6,67.4,29.96,NW,322,0.0,0.0,81,0.00,,---,0.01,VWS V15.00,2015-07-06 06:48:00,
2015-07-06 02:53:00,73.5,67.3,29.96,NW,322,0.0,0.0,81,0.00,,---,0.01,VWS V15.00,2015-07-06 06:53:00,
2015-07-06 02:58:00,73.3,67.1,29.96,NW,322,0.0,0.0,81,0.00,,---,0.01,VWS V15.00,2015-07-06 06:58:00,
2015-07-06 03:03:00,73.1,67.3,29.96,NW,322,0.0,0.0,82,0.00,,---,0.01,VWS V15.00,2015-07-06 07:03:00,
2015-07-06 03:08:00,72.9,67.1,29.96,NW,322,0.0,0.0,82,0.00,,---,0.01,VWS V15.00,2015-07-06 07:08:00,
2015-07-06 03:13:00,72.9,67.1,29.96,NW,322,0.0,0.0,82,0.00,,---,0.01,VWS V15.00,2015-07-06 07:13:00,
2015-07-06 03:18:00,72.8,67.0,29.96,NW,322,0.0,0.0,82,0.00,,---,0.01,VWS V15.00,2015-07-06 07:18:00,
2015-07-06 03:23:00,72.7,66.9,29.96,NW,322,0.0,0.0,82,0.00,,---,0.01,VWS V15.00,2015-07-06 07:23:00,
2015-07-06 03:28:00,72.6,66.8,29.96,NW,322,0.0,0.0,82,0.00,,---,0.01,VWS V15.00,2015-07-06 07:28:00,
2015-07-06 03:33:00,72.5,66.7,29.96,NW,322,0.0,0.0,82,0.00,,---,0.01,VWS V15.00,2015-07-06 07:33:00,
2015-07-06 03:38:00,72.5,67.1,29.96,NW,322,0.0,0.0,83,0.00,,---,0.01,VWS V15.00,2015-07-06 07:38:00,
2015-07-06 03:43:00,72.5,67.1,29.96,NW,322,0.0,0.0,83,0.00,,---,0.01,VWS V15.00,2015-07-06 07:43:00,
2015-07-06 03:48:00,72.6,67.2,29.96,NW,322,0.0,0.0,83,0.00,,---,0.01,VWS V15.00,2015-07-06 07:48:00,
2015-07-06 03:53:00,72.6,67.2,29.96,NW,322,0.0,0.0,83,0.00,,---,0.01,VWS V15.00,2015-07-06 07:53:00,
2015-07-06 03:58:00,72.7,67.2,29.96,NW,322,0.0,0.0,83,0.00,,---,0.01,VWS V15.00,2015-07-06 07:58:00,
2015-07-06 04:03:00,72.8,67.3,29.96,NW,322,0.0,1.0,83,0.00,,---,0.01,VWS V15.00,2015-07-06 08:03:00,
2015-07-06 04:08:00,72.9,67.4,29.96,NW,322,0.0,1.0,83,0.00,,---,0.01,VWS V15.00,2015-07-06 08:08:00,
2015-07-06 04:13:00,72.9,67.4,29.96,NW,322,0.0,1.0,83,0.00,,---,0.01,VWS V15.00,2015-07-06 08:13:00,
2015-07-06 04:18:00,73.0,67.5,29.96,NW,322,0.0,1.0,83,0.00,,---,0.01,VWS V15.00,2015-07-06 08:18:00,
2015-07-06 04:23:00,72.9,67.4,29.96,NW,322,0.0,1.0,83,0.00,,---,0.01,VWS V15.00,2015-07-06 08:23:00,
2015-07-06 04:28:00,73.0,67.5,29.96,SSE,153,3.0,4.0,83,0.00,,---,0.01,VWS V15.00,2015-07-06 08:28:00,
2015-07-06 04:33:00,73.1,67.6,29.96,SE,139,2.0,5.0,83,0.00,,---,0.01,VWS V15.00,2015-07-06 08:33:00,
2015-07-06 04:38:00,73.3,67.8,29.96,SE,126,1.0,6.0,83,0.00,,---,0.01,VWS V15.00,2015-07-06 08:38:00,
2015-07-06 04:43:00,73.4,67.6,29.96,SSE,150,3.0,6.0,82,0.00,,---,0.01,VWS V15.00,2015-07-06 08:43:00,
2015-07-06 04:48:00,73.6,67.8,29.96,SE,142,3.0,7.0,82,0.00,,---,0.01,VWS V15.00,2015-07-06 08:48:00,
2015-07-06 04:53:00,73.6,67.8,29.96,SE,144,4.0,7.0,82,0.00,,---,0.01,VWS V15.00,2015-07-06 08:53:00,
2015-07-06 04:58:00,73.8,68.0,29.96,SE,143,1.0,3.0,82,0.00,,---,0.01,VWS V15.00,2015-07-06 08:58:00,
2015-07-06 05:03:00,74.1,68.3,29.96,SW,219,4.0,4.0,82,0.00,,---,0.01,VWS V15.00,2015-07-06 09:03:00,
2015-07-06 05:08:00,74.3,68.4,29.96,SSE,160,0.0,4.0,82,0.00,,---,0.01,VWS V15.00,2015-07-06 09:08:00,
2015-07-06 05:13:00,74.5,68.7,29.96,SSE,159,1.0,4.0,82,0.00,,---,0.01,VWS V15.00,2015-07-06 09:13:00,
2015-07-06 05:18:00,74.6,68.8,29.96,SSE,159,0.0,4.0,82,0.00,,---,0.01,VWS V15.00,2015-07-06 09:18:00,
2015-07-06 05:23:00,74.9,69.0,29.96,SSE,159,0.0,4.0,82,0.00,,---,0.01,VWS V15.00,2015-07-06 09:23:00,
2015-07-06 05:28:00,75.0,69.1,29.96,SE,144,0.0,1.0,82,0.00,,---,0.01,VWS V15.00,2015-07-06 09:28:00,
2015-07-06 05:33:00,75.1,69.2,29.96,SE,143,0.0,1.0,82,0.00,,---,0.01,VWS V15.00,2015-07-06 09:33:00,
2015-07-06 05:38:00,75.1,69.2,29.96,SE,143,0.0,2.0,82,0.00,,---,0.01,VWS V15.00,2015-07-06 09:38:00,
2015-07-06 05:43:00,75.4,69.5,29.96,SE,144,0.0,4.0,82,0.00,,---,0.01,VWS V15.00,2015-07-06 09:43:00,
2015-07-06 05:48:00,75.6,69.7,29.96,East,80,0.0,4.0,82,0.00,,---,0.01,VWS V15.00,2015-07-06 09:48:00,
2015-07-06 05:53:00,75.7,69.8,29.96,East,80,0.0,4.0,82,0.00,,---,0.01,VWS V15.00,2015-07-06 09:53:00,
2015-07-06 05:58:00,75.7,69.8,29.96,East,80,0.0,0.0,82,0.00,,---,0.01,VWS V15.00,2015-07-06 09:58:00,
2015-07-06 06:03:00,75.6,69.7,29.96,East,80,0.0,1.0,82,0.00,,---,0.01,VWS V15.00,2015-07-06 10:03:00,
2015-07-06 06:08:00,75.6,70.1,29.96,East,80,0.0,1.0,83,0.00,,---,0.01,VWS V15.00,2015-07-06 10:08:00,
2015-07-06 06:13:00,75.7,69.8,29.96,East,97,0.0,1.0,82,0.00,,---,0.01,VWS V15.00,2015-07-06 10:13:00,
2015-07-06 06:18:00,76.0,70.1,29.96,SSE,147,0.0,4.0,82,0.00,,---,0.01,VWS V15.00,2015-07-06 10:18:00,
2015-07-06 06:23:00,76.3,70.4,29.96,SSE,147,0.0,4.0,82,0.00,,---,0.01,VWS V15.00,2015-07-06 10:23:00,
2015-07-06 06:28:00,76.5,70.6,29.96,SSE,149,0.0,1.0,82,0.00,,---,0.01,VWS V15.00,2015-07-06 10:28:00,
2015-07-06 06:33:00,76.7,70.8,29.96,SSE,149,0.0,1.0,82,0.00,,---,0.01,VWS V15.00,2015-07-06 10:33:00,
2015-07-06 06:38:00,76.9,71.0,29.96,SSE,149,0.0,1.0,82,0.00,,---,0.01,VWS V15.00,2015-07-06 10:38:00,
2015-07-06 06:43:00,76.8,70.9,29.96,SSE,149,0.0,1.0,82,0.00,,---,0.01,VWS V15.00,2015-07-06 10:43:00,
2015-07-06 06:48:00,76.7,70.8,29.96,SSE,149,0.0,1.0,82,0.00,,---,0.01,VWS V15.00,2015-07-06 10:48:00,
2015-07-06 06:53:00,76.7,70.8,29.96,SSE,149,0.0,1.0,82,0.00,,---,0.01,VWS V15.00,2015-07-06 10:53:00,
2015-07-06 06:58:00,76.6,71.1,29.96,SSE,149,0.0,0.0,83,0.00,,---,0.01,VWS V15.00,2015-07-06 10:58:00,
2015-07-06 07:03:00,76.4,70.9,29.96,SSE,149,0.0,0.0,83,0.00,,---,0.01,VWS V15.00,2015-07-06 11:03:00,
2015-07-06 07:08:00,76.4,70.9,29.96,SSE,149,0.0,0.0,83,0.00,,---,0.01,VWS V15.00,2015-07-06 11:08:00,
2015-07-06 07:13:00,76.6,71.1,29.96,SSE,150,2.0,2.0,83,0.00,,---,0.01,VWS V15.00,2015-07-06 11:13:00,
2015-07-06 07:18:00,76.6,70.7,29.96,NNW,331,1.0,4.0,82,0.00,,---,0.01,VWS V15.00,2015-07-06 11:18:00,
2015-07-06 07:23:00,76.5,70.6,29.96,NW,323,1.0,4.0,82,0.00,,---,0.01,VWS V15.00,2015-07-06 11:23:00,
2015-07-06 07:28:00,76.5,70.6,29.96,NW,323,0.0,0.0,82,0.00,,---,0.01,VWS V15.00,2015-07-06 11:28:00,
2015-07-06 07:33:00,76.5,70.6,29.96,NW,323,1.0,2.0,82,0.00,,---,0.01,VWS V15.00,2015-07-06 11:33:00,
2015-07-06 07:38:00,76.5,70.6,29.96,NW,323,0.0,2.0,82,0.00,,---,0.01,VWS V15.00,2015-07-06 11:38:00,
2015-07-06 07:43:00,76.5,70.6,29.96,NNW,327,0.0,2.0,82,0.00,,---,0.01,VWS V15.00,2015-07-06 11:43:00,
2015-07-06 07:48:00,76.5,70.6,29.96,NNW,327,0.0,2.0,82,0.00,,---,0.01,VWS V15.00,2015-07-06 11:48:00,
2015-07-06 07:53:00,76.6,70.7,29.96,NNW,327,0.0,2.0,82,0.00,,---,0.01,VWS V15.00,2015-07-06 11:53:00,
2015-07-06 07:58:00,76.7,70.8,29.96,NNW,327,0.0,1.0,82,0.00,,---,0.01,VWS V15.00,2015-07-06 11:58:00,
2015-07-06 08:03:00,76.7,70.4,29.96,NNW,327,0.0,2.0,81,0.00,,---,0.01,VWS V15.00,2015-07-06 12:03:00,
2015-07-06 08:08:00,76.8,70.5,29.96,NW,326,0.0,2.0,81,0.00,,---,0.01,VWS V15.00,2015-07-06 12:08:00,
2015-07-06 08:13:00,76.9,70.6,29.96,NNW,327,1.0,2.0,81,0.00,,---,0.01,VWS V15.00,2015-07-06 12:13:00,
2015-07-06 08:18:00,77.1,70.8,29.96,NNW,327,0.0,2.0,81,0.00,,---,0.01,VWS V15.00,2015-07-06 12:18:00,
2015-07-06 08:23:00,77.3,71.0,29.96,NNW,327,0.0,2.0,81,0.00,,---,0.01,VWS V15.00,2015-07-06 12:23:00,
2015-07-06 08:28:00,77.5,71.2,29.96,NNW,327,0.0,0.0,81,0.00,,---,0.01,VWS V15.00,2015-07-06 12:28:00,
2015-07-06 08:33:00,77.8,71.9,29.96,NNW,327,0.0,1.0,82,0.00,,---,0.01,VWS V15.00,2015-07-06 12:33:00,
2015-07-06 08:38:00,78.0,71.7,29.96,North,10,0.0,2.0,81,0.00,,---,0.01,VWS V15.00,2015-07-06 12:38:00,
2015-07-06 08:43:00,78.2,71.9,29.96,North,10,0.0,2.0,81,0.00,,---,0.01,VWS V15.00,2015-07-06 12:43:00,
2015-07-06 08:48:00,78.5,72.2,29.96,North,11,0.0,2.0,81,0.00,,---,0.01,VWS V15.00,2015-07-06 12:48:00,
2015-07-06 08:53:00,78.8,72.5,29.96,North,11,0.0,2.0,81,0.00,,---,0.01,VWS V15.00,2015-07-06 12:53:00,
2015-07-06 08:58:00,79.1,72.8,29.96,North,11,0.0,0.0,81,0.00,,---,0.01,VWS V15.00,2015-07-06 12:58:00,
2015-07-06 09:03:00,79.4,73.1,29.96,NE,36,0.0,2.0,81,0.00,,---,0.01,VWS V15.00,2015-07-06 13:03:00,
2015-07-06 09:08:00,79.8,73.4,29.96,NNE,33,0.0,2.0,81,0.00,,---,0.01,VWS V15.00,2015-07-06 13:08:00,